Birkbeck, Illinois
Current Conditions -  °F | °C
As of 1:55 PM on Friday 24 Oct 2014 (Local Time) from KAAA Reporting Station
Clear Clear  
Wind Chill: 67°   Ceiling: Unl
Heat Index: 67°   Visibility: 10mi
Dew Point: 55°   Wind: 6mph
Humidity: 66%   Direction: 230°SW
Pressure: 30.02"   Gusts: NA
Location:  40.143°N, 88.9637°W
Report Text: KAAA 241855Z AUTO 23005KT 10SM CLR 19/13 A3002 RMK AO2 T01930129
Loading
Personal Weather Stations






























Interactive Weather Map New forecast layout! Learn more

10-Day Weather Forecast

Advertisements
Track Severe Weather on mobile